Great Bend, KS (67530)

6:10 AM CST on December 11, 2016 (GMT -0600)
Edgepark Addition | | Change Station

Elev 1880 ft 38.38 °N, 98.77 °W | Updated 15 seconds ago

Partly Cloudy
Partly Cloudy
36.0 °F
Feels Like 36 °F
N
2.5
Wind Variable Wind from WNW
Gusts 2.5 mph

Today
High -- | Low -- °F
--% Chance of Precip.
Yesterday
High -- | Low -- °F
Precip. -- in
Pressure 29.73 in
Visibility 7.0 miles
Clouds Clear
Windchill 36 °F
Dew Point 35 °F
Humidity 98%
Rainfall 0.00 in
Snow Depth Not available.
7:42 AM 5:14 PM
Waxing Gibbous, 91% visible
METAR KGBD 111156Z AUTO 32007KT 7SM CLR M02/M02 A2969 RMK AO2 SLP066 T10171022 10017 21022 53006 FZRANO
Pressure 29.73 in
Visibility 7.0 miles
Clouds Clear
Windchill 36 °F
Dew Point 35 °F
Humidity 98%
Rainfall 0.00 in
Snow Depth Not available.
7:42 AM 5:14 PM
Waxing Gibbous, 91% visible
METAR KGBD 111156Z AUTO 32007KT 7SM CLR M02/M02 A2969 RMK AO2 SLP066 T10171022 10017 21022 53006 FZRANO

10-Day Weather Forecast

Almanac

Astronomy

Dec. 11, 2016 Rise Set
Actual Time
Civil Twilight
Nautical Twilight
Astronomical Twilight
Moon
Length of Visible Light
Length of Day
Tomorrow will be .
, % of the Moon is Illuminated

Today's Extremes

State Highs State Lows

Community

WunderPhotos

Upload Photos

1,956,710 photos uploaded!

WunderBlog® & News

Nearby

Air Quality

  Air Quality AQ Index Pollutant
Not available.

Snow Depth

Station Depth Elevation

Earthquake Activity

City Distance Mag. Time & Date
Minimum magnitude displayed is 2.5.

Coastal Water Temperatures

Place Temperature

Stations

Nearby Weather Stations

Station Location Temp. Windchill Dew Point Humidity Wind Precip. Elev Updated Type
                   

Watches & Warnings

There are currently no watches in effect.